createdAt,value
2017-03-04T00:01:00.329Z,0
2017-03-04T00:02:10.615Z,0
2017-03-04T00:03:19.797Z,0
2017-03-04T00:04:29.763Z,0
2017-03-04T00:05:38.574Z,0
2017-03-04T00:06:48.525Z,0
2017-03-04T00:07:59.616Z,0
2017-03-04T00:09:08.421Z,0
2017-03-04T00:10:17.603Z,0
2017-03-04T00:11:27.093Z,0
2017-03-04T00:12:35.820Z,0
2017-03-04T00:13:45.310Z,0
2017-03-04T00:14:54.868Z,0
2017-03-04T00:16:04.440Z,0
2017-03-04T00:17:14.020Z,0
2017-03-04T00:18:23.997Z,0
2017-03-04T00:19:33.166Z,0
2017-03-04T00:20:42.739Z,0
2017-03-04T00:21:53.093Z,0
2017-03-04T00:23:02.599Z,0
2017-03-04T00:24:12.158Z,0
2017-03-04T00:25:22.821Z,0
2017-03-04T00:26:32.781Z,0
2017-03-04T00:27:42.374Z,0
2017-03-04T00:28:52.450Z,0
2017-03-04T00:30:01.646Z,0
2017-03-04T00:31:11.226Z,0
2017-03-04T00:32:20.791Z,0
2017-03-04T00:33:29.983Z,0
2017-03-04T00:34:39.926Z,0
2017-03-04T00:35:49.483Z,0
2017-03-04T00:36:59.636Z,0
2017-03-04T00:38:09.223Z,0
2017-03-04T00:39:18.725Z,0
2017-03-04T00:40:28.680Z,0
2017-03-04T00:41:38.649Z,0
2017-03-04T00:42:48.224Z,0
2017-03-04T00:43:57.800Z,0
2017-03-04T00:45:08.147Z,0
2017-03-04T00:46:18.103Z,0
2017-03-04T00:47:27.281Z,0
2017-03-04T00:48:36.884Z,0
2017-03-04T00:49:46.487Z,0
2017-03-04T00:50:55.668Z,0
2017-03-04T00:52:06.127Z,0
2017-03-04T00:53:15.322Z,0
2017-03-04T00:54:25.584Z,0
2017-03-04T00:55:34.773Z,0
2017-03-04T00:56:44.722Z,0
2017-03-04T00:57:54.648Z,0
2017-03-04T00:59:04.166Z,0
2017-03-04T01:00:14.124Z,0
2017-03-04T01:01:23.689Z,0
2017-03-04T01:02:32.877Z,0
2017-03-04T01:03:42.835Z,0
2017-03-04T01:04:52.036Z,0
2017-03-04T01:06:01.998Z,0
2017-03-04T01:07:11.174Z,0
2017-03-04T01:08:21.154Z,0
2017-03-04T01:09:30.735Z,0
2017-03-04T01:10:39.866Z,0
2017-03-04T01:11:49.067Z,0
2017-03-04T01:12:57.863Z,0
2017-03-04T01:14:07.823Z,0
2017-03-04T01:15:17.413Z,0
2017-03-04T01:16:26.995Z,0
2017-03-04T01:17:37.324Z,0
2017-03-04T01:18:47.680Z,0
2017-03-04T01:19:57.234Z,0
2017-03-04T01:21:07.221Z,0
2017-03-04T01:22:16.796Z,0
2017-03-04T01:23:26.376Z,0
2017-03-04T01:24:35.881Z,0
2017-03-04T01:25:44.660Z,0
2017-03-04T01:26:54.228Z,0
2017-03-04T01:28:03.410Z,0
2017-03-04T01:29:12.906Z,0
2017-03-04T01:30:22.106Z,0
2017-03-04T01:31:32.443Z,0
2017-03-04T01:32:42.398Z,0
2017-03-04T01:33:52.010Z,0
2017-03-04T01:35:00.758Z,0
2017-03-04T01:36:10.324Z,0
2017-03-04T01:37:19.900Z,0
2017-03-04T01:38:29.461Z,0
2017-03-04T01:39:39.722Z,0
2017-03-04T01:40:48.959Z,0
2017-03-04T01:41:58.925Z,0
2017-03-04T01:43:08.058Z,0
2017-03-04T01:44:17.276Z,0
2017-03-04T01:45:26.828Z,0
2017-03-04T01:46:36.004Z,0
2017-03-04T01:47:45.575Z,0
2017-03-04T01:48:55.535Z,0
2017-03-04T01:50:06.251Z,0
2017-03-04T01:51:16.202Z,0
2017-03-04T01:52:25.775Z,0
2017-03-04T01:53:35.738Z,0
2017-03-04T01:54:45.694Z,0
2017-03-04T01:55:55.708Z,0
2017-03-04T01:57:04.928Z,0
2017-03-04T01:58:14.512Z,0
2017-03-04T01:59:24.843Z,0
2017-03-04T02:00:33.967Z,0
2017-03-04T02:01:43.451Z,0
2017-03-04T02:02:53.048Z,0
2017-03-04T02:04:02.260Z,0
2017-03-04T02:05:11.769Z,0
2017-03-04T02:06:21.751Z,0
2017-03-04T02:07:31.326Z,0
2017-03-04T02:08:40.916Z,0
2017-03-04T02:09:51.062Z,0
2017-03-04T02:11:00.257Z,0
2017-03-04T02:12:10.220Z,0
2017-03-04T02:13:20.557Z,0
2017-03-04T02:14:30.171Z,0
2017-03-04T02:15:40.067Z,0
2017-03-04T02:16:49.252Z,0
2017-03-04T02:17:58.830Z,0
2017-03-04T02:19:08.784Z,0
2017-03-04T02:20:19.125Z,0
2017-03-04T02:21:28.703Z,0
2017-03-04T02:22:38.660Z,0
2017-03-04T02:23:48.993Z,0
2017-03-04T02:24:58.039Z,0
2017-03-04T02:26:07.612Z,0
2017-03-04T02:27:17.552Z,0
2017-03-04T02:28:27.520Z,0
2017-03-04T02:29:37.871Z,0
2017-03-04T02:30:47.382Z,0
2017-03-04T02:31:56.946Z,0
2017-03-04T02:33:06.486Z,0
2017-03-04T02:34:16.058Z,0
2017-03-04T02:35:25.945Z,0
2017-03-04T02:36:35.492Z,0
2017-03-04T02:37:45.013Z,0
2017-03-04T02:38:54.186Z,0
2017-03-04T02:40:03.383Z,0
2017-03-04T02:41:12.558Z,0
2017-03-04T02:42:22.139Z,0
2017-03-04T02:43:30.885Z,0
2017-03-04T02:44:40.367Z,0
2017-03-04T02:45:49.943Z,0
2017-03-04T02:46:59.458Z,0
2017-03-04T02:48:09.061Z,0
2017-03-04T02:49:19.823Z,0
2017-03-04T02:50:29.401Z,0
2017-03-04T02:51:39.720Z,0
2017-03-04T02:52:49.293Z,0
2017-03-04T02:53:58.499Z,0
2017-03-04T02:55:07.995Z,0
2017-03-04T02:56:17.954Z,0
2017-03-04T02:57:27.522Z,0
2017-03-04T02:58:36.631Z,0
2017-03-04T02:59:46.189Z,0
2017-03-04T03:00:55.814Z,0
2017-03-04T03:02:06.193Z,0
2017-03-04T03:03:15.787Z,0
2017-03-04T03:04:24.991Z,0
2017-03-04T03:05:34.558Z,0
2017-03-04T03:06:43.752Z,0
2017-03-04T03:07:53.707Z,0
2017-03-04T03:09:04.087Z,0
2017-03-04T03:10:14.053Z,0
2017-03-04T03:11:23.648Z,0
2017-03-04T03:12:33.605Z,0
2017-03-04T03:13:43.172Z,0
2017-03-04T03:14:53.137Z,0
2017-03-04T03:16:02.707Z,0
2017-03-04T03:17:12.600Z,0
2017-03-04T03:18:22.541Z,0
2017-03-04T03:19:31.737Z,0
2017-03-04T03:20:42.082Z,0
2017-03-04T03:21:52.405Z,0
2017-03-04T03:23:02.748Z,0
2017-03-04T03:24:12.715Z,0
2017-03-04T03:25:22.687Z,0
2017-03-04T03:26:32.283Z,0
2017-03-04T03:27:41.395Z,0
2017-03-04T03:28:50.592Z,0
2017-03-04T03:29:59.397Z,0
2017-03-04T03:31:08.983Z,0
2017-03-04T03:32:19.354Z,0
2017-03-04T03:33:35.286Z,0
2017-03-04T03:34:45.075Z,0
2017-03-04T03:35:53.899Z,0
2017-03-04T03:37:04.315Z,0
2017-03-04T03:38:13.513Z,0
2017-03-04T03:39:22.331Z,0
2017-03-04T03:40:32.546Z,0
2017-03-04T03:41:41.756Z,0
2017-03-04T03:42:52.122Z,0
2017-03-04T03:44:02.520Z,0
2017-03-04T03:45:12.133Z,0
2017-03-04T03:46:21.759Z,0
2017-03-04T03:47:30.881Z,0
2017-03-04T03:48:40.854Z,0
2017-03-04T03:49:51.212Z,0
2017-03-04T03:51:00.799Z,0
2017-03-04T03:52:10.768Z,0
2017-03-04T03:53:19.960Z,0
2017-03-04T03:54:29.544Z,0
2017-03-04T03:55:39.927Z,0
2017-03-04T03:56:50.285Z,0
2017-03-04T03:58:00.661Z,0
2017-03-04T03:59:10.656Z,0
2017-03-04T04:00:19.860Z,0
2017-03-04T04:01:29.445Z,0
2017-03-04T04:02:39.825Z,0
2017-03-04T04:03:50.111Z,0
2017-03-04T04:04:59.532Z,0
2017-03-04T04:06:09.525Z,0
2017-03-04T04:07:19.508Z,0
2017-03-04T04:08:28.712Z,0
2017-03-04T04:09:38.686Z,0
2017-03-04T04:10:49.041Z,0
2017-03-04T04:11:59.033Z,0
2017-03-04T04:13:08.630Z,0
2017-03-04T04:14:18.248Z,0
2017-03-04T04:15:28.241Z,0
2017-03-04T04:16:37.365Z,0
2017-03-04T04:17:47.352Z,0
2017-03-04T04:18:56.571Z,0
2017-03-04T04:20:06.161Z,0
2017-03-04T04:21:15.379Z,0
2017-03-04T04:22:24.805Z,0
2017-03-04T04:23:34.404Z,0
2017-03-04T04:24:44.396Z,0
2017-03-04T04:25:53.611Z,0
2017-03-04T04:27:03.208Z,0
2017-03-04T04:28:12.811Z,0
2017-03-04T04:29:22.398Z,0
2017-03-04T04:30:31.610Z,0
2017-03-04T04:31:40.400Z,0
2017-03-04T04:32:49.608Z,0
2017-03-04T04:33:59.529Z,0
2017-03-04T04:35:09.082Z,0
2017-03-04T04:36:18.594Z,0
2017-03-04T04:37:28.187Z,0
2017-03-04T04:38:38.170Z,0
2017-03-04T04:39:47.785Z,0
2017-03-04T04:40:57.748Z,0
2017-03-04T04:42:06.938Z,0
2017-03-04T04:43:16.922Z,0
2017-03-04T04:44:26.531Z,0
2017-03-04T04:45:36.898Z,0
2017-03-04T04:46:45.707Z,0
2017-03-04T04:47:54.531Z,0
2017-03-04T04:49:04.108Z,0
2017-03-04T04:50:13.292Z,0
2017-03-04T04:51:22.869Z,0
2017-03-04T04:52:32.423Z,0
2017-03-04T04:53:41.669Z,0
2017-03-04T04:54:51.661Z,0
2017-03-04T04:56:00.794Z,0
2017-03-04T04:57:11.169Z,0
2017-03-04T04:58:21.161Z,0
2017-03-04T04:59:31.518Z,0
2017-03-04T05:00:40.368Z,0
2017-03-04T05:01:49.591Z,0
2017-03-04T05:02:58.793Z,0
2017-03-04T05:04:08.385Z,0
2017-03-04T05:05:18.362Z,0
2017-03-04T05:06:27.591Z,0
2017-03-04T05:07:37.559Z,0
2017-03-04T05:08:46.752Z,0
2017-03-04T05:09:56.339Z,0
2017-03-04T05:11:05.967Z,0
2017-03-04T05:12:15.563Z,0
2017-03-04T05:13:25.157Z,0
2017-03-04T05:14:35.145Z,0
2017-03-04T05:15:44.696Z,0
2017-03-04T05:16:55.012Z,0
2017-03-04T05:18:04.558Z,0
2017-03-04T05:19:14.546Z,0
2017-03-04T05:20:24.135Z,0
2017-03-04T05:21:33.773Z,0
2017-03-04T05:22:43.782Z,0
2017-03-04T05:23:53.751Z,0
2017-03-04T05:25:04.512Z,0
2017-03-04T05:26:14.100Z,0
2017-03-04T05:27:24.084Z,0
2017-03-04T05:28:34.090Z,0
2017-03-04T05:29:43.688Z,0
2017-03-04T05:30:54.062Z,0
2017-03-04T05:32:03.653Z,0
2017-03-04T05:33:13.264Z,0
2017-03-04T05:34:22.058Z,0
2017-03-04T05:35:31.595Z,0
2017-03-04T05:36:40.728Z,0
2017-03-04T05:37:51.038Z,0
2017-03-04T05:39:01.775Z,0
2017-03-04T05:40:11.752Z,0
2017-03-04T05:41:21.356Z,0
2017-03-04T05:42:31.727Z,0
2017-03-04T05:43:41.703Z,0
2017-03-04T05:44:51.303Z,0
2017-03-04T05:46:00.435Z,0
2017-03-04T05:47:09.633Z,0
2017-03-04T05:48:19.989Z,0
2017-03-04T05:49:29.194Z,0
2017-03-04T05:50:38.804Z,0
2017-03-04T05:51:48.032Z,0
2017-03-04T05:52:57.609Z,0
2017-03-04T05:54:06.820Z,0
2017-03-04T05:55:16.414Z,0
2017-03-04T05:56:26.401Z,0
2017-03-04T05:57:36.376Z,0
2017-03-04T05:58:45.900Z,0
2017-03-04T05:59:55.469Z,0
2017-03-04T06:01:05.839Z,0
2017-03-04T06:02:15.417Z,0
2017-03-04T06:03:25.326Z,0
2017-03-04T06:04:34.462Z,0
2017-03-04T06:05:44.435Z,0
2017-03-04T06:06:54.416Z,0
2017-03-04T06:08:03.993Z,0
2017-03-04T06:09:13.581Z,0
2017-03-04T06:10:22.723Z,0
2017-03-04T06:11:32.703Z,0
2017-03-04T06:12:41.893Z,0
2017-03-04T06:13:52.263Z,0
2017-03-04T06:15:02.239Z,0
2017-03-04T06:16:12.618Z,0
2017-03-04T06:17:22.992Z,0
2017-03-04T06:18:33.750Z,0
2017-03-04T06:19:43.274Z,0
2017-03-04T06:20:52.421Z,0
2017-03-04T06:22:02.425Z,0
2017-03-04T06:23:12.344Z,0
2017-03-04T06:24:21.538Z,0
2017-03-04T06:25:30.376Z,0
2017-03-04T06:26:39.576Z,0
2017-03-04T06:27:48.409Z,0
2017-03-04T06:28:58.010Z,0
2017-03-04T06:30:08.363Z,0
2017-03-04T06:31:17.879Z,0
2017-03-04T06:32:27.864Z,0
2017-03-04T06:33:37.834Z,0
2017-03-04T06:34:48.132Z,0
2017-03-04T06:35:57.678Z,0
2017-03-04T06:37:06.880Z,0
2017-03-04T06:38:17.243Z,0
2017-03-04T06:39:26.480Z,0
2017-03-04T06:40:36.470Z,0
2017-03-04T06:41:46.787Z,0
2017-03-04T06:42:57.154Z,0
2017-03-04T06:44:06.678Z,0
2017-03-04T06:45:17.065Z,0
2017-03-04T06:46:26.640Z,0
2017-03-04T06:47:36.640Z,0
2017-03-04T06:48:46.166Z,0
2017-03-04T06:49:56.533Z,0
2017-03-04T06:51:06.134Z,0
2017-03-04T06:52:15.742Z,0
2017-03-04T06:53:25.723Z,0
2017-03-04T06:54:35.312Z,0
2017-03-04T06:55:44.912Z,0
2017-03-04T06:56:54.509Z,0
2017-03-04T06:58:04.107Z,0
2017-03-04T06:59:13.310Z,0
2017-03-04T07:00:23.293Z,0
2017-03-04T07:01:32.857Z,0
2017-03-04T07:02:43.221Z,0
2017-03-04T07:03:52.800Z,0
2017-03-04T07:05:03.555Z,0
2017-03-04T07:06:13.169Z,0
2017-03-04T07:07:23.540Z,0
2017-03-04T07:08:33.090Z,5
2017-03-04T07:09:42.303Z,5
2017-03-04T07:10:51.507Z,5
2017-03-04T07:12:01.866Z,5
2017-03-04T07:13:11.466Z,5
2017-03-04T07:14:20.983Z,5
2017-03-04T07:15:30.583Z,5
2017-03-04T07:16:40.159Z,5
2017-03-04T07:17:50.144Z,5
2017-03-04T07:18:59.336Z,5
2017-03-04T07:20:08.540Z,5
2017-03-04T07:21:18.914Z,5
2017-03-04T07:22:28.495Z,5
2017-03-04T07:23:38.818Z,5
2017-03-04T07:24:48.433Z,5
2017-03-04T07:25:57.599Z,5
2017-03-04T07:27:07.948Z,5
2017-03-04T07:28:17.524Z,5
2017-03-04T07:29:26.271Z,5
2017-03-04T07:30:36.273Z,5
2017-03-04T07:31:45.476Z,5
2017-03-04T07:32:55.082Z,5
2017-03-04T07:34:04.608Z,5
2017-03-04T07:35:14.623Z,5
2017-03-04T07:36:25.375Z,5
2017-03-04T07:37:35.762Z,5
2017-03-04T07:38:45.372Z,5
2017-03-04T07:39:55.753Z,10
2017-03-04T07:41:05.343Z,10
2017-03-04T07:42:14.872Z,10
2017-03-04T07:43:24.457Z,10
2017-03-04T07:44:35.128Z,10
2017-03-04T07:45:44.339Z,10
2017-03-04T07:46:54.323Z,10
2017-03-04T07:48:03.531Z,10
2017-03-04T07:49:12.772Z,10
2017-03-04T07:50:22.765Z,10
2017-03-04T07:51:31.584Z,10
2017-03-04T07:52:40.706Z,10
2017-03-04T07:53:50.710Z,10
2017-03-04T07:54:59.886Z,10
2017-03-04T07:56:09.464Z,10
2017-03-04T07:57:18.701Z,10
2017-03-04T07:58:27.897Z,10
2017-03-04T07:59:37.111Z,10
2017-03-04T08:00:45.843Z,10
2017-03-04T08:01:54.668Z,15
2017-03-04T08:03:04.248Z,15
2017-03-04T08:04:13.062Z,15
2017-03-04T08:05:22.651Z,15
2017-03-04T08:06:32.254Z,15
2017-03-04T08:07:42.219Z,15
2017-03-04T08:08:51.742Z,20
2017-03-04T08:10:00.965Z,20
2017-03-04T08:11:10.952Z,20
2017-03-04T08:12:20.536Z,25
2017-03-04T08:13:30.140Z,25
2017-03-04T08:14:39.332Z,25
2017-03-04T08:15:48.922Z,30
2017-03-04T08:16:58.527Z,30
2017-03-04T08:18:08.041Z,35
2017-03-04T08:19:17.623Z,35
2017-03-04T08:20:26.466Z,40
2017-03-04T08:21:35.603Z,40
2017-03-04T08:22:45.127Z,35
2017-03-04T08:23:55.105Z,35
2017-03-04T08:25:05.238Z,35
2017-03-04T08:26:14.848Z,35
2017-03-04T08:27:24.064Z,35
2017-03-04T08:28:33.662Z,35
2017-03-04T08:29:43.247Z,35
2017-03-04T08:30:52.777Z,35
2017-03-04T08:32:03.072Z,35
2017-03-04T08:33:11.922Z,35
2017-03-04T08:34:21.898Z,35
2017-03-04T08:35:30.730Z,40
2017-03-04T08:36:39.948Z,40
2017-03-04T08:37:49.931Z,40
2017-03-04T08:38:59.124Z,40
2017-03-04T08:40:09.110Z,40
2017-03-04T08:41:18.714Z,40
2017-03-04T08:42:27.925Z,40
2017-03-04T08:43:38.692Z,40
2017-03-04T08:44:47.881Z,40
2017-03-04T08:45:57.497Z,40
2017-03-04T08:47:07.109Z,40
2017-03-04T08:48:16.311Z,40
2017-03-04T08:49:26.686Z,40
2017-03-04T08:50:35.831Z,35
2017-03-04T08:51:46.171Z,35
2017-03-04T08:52:55.764Z,30
2017-03-04T08:54:05.593Z,30
2017-03-04T08:55:15.192Z,30
2017-03-04T08:56:24.343Z,30
2017-03-04T08:57:33.949Z,25
2017-03-04T08:58:43.544Z,25
2017-03-04T08:59:52.725Z,25
2017-03-04T09:01:02.336Z,25
2017-03-04T09:02:12.704Z,25
2017-03-04T09:03:23.466Z,30
2017-03-04T09:04:33.463Z,30
2017-03-04T09:05:42.698Z,30
2017-03-04T09:06:52.634Z,35
2017-03-04T09:08:03.265Z,35
2017-03-04T09:09:13.263Z,40
2017-03-04T09:10:22.070Z,35
2017-03-04T09:11:32.062Z,35
2017-03-04T09:12:41.691Z,35
2017-03-04T09:13:51.282Z,35
2017-03-04T09:15:01.273Z,35
2017-03-04T09:16:11.264Z,35
2017-03-04T09:17:20.888Z,35
2017-03-04T09:18:29.715Z,35
2017-03-04T09:19:40.017Z,35
2017-03-04T09:20:49.204Z,30
2017-03-04T09:21:58.410Z,30
2017-03-04T09:23:08.422Z,30
2017-03-04T09:24:18.397Z,30
2017-03-04T09:25:27.990Z,30
2017-03-04T09:26:38.810Z,25
2017-03-04T09:27:48.440Z,25
2017-03-04T09:28:58.426Z,25
2017-03-04T09:30:07.479Z,25
2017-03-04T09:31:16.295Z,25
2017-03-04T09:32:26.281Z,25
2017-03-04T09:33:35.864Z,25
2017-03-04T09:34:45.458Z,20
2017-03-04T09:35:55.073Z,20
2017-03-04T09:37:05.050Z,20
2017-03-04T09:38:15.434Z,20
2017-03-04T09:39:25.801Z,20
2017-03-04T09:40:35.373Z,25
2017-03-04T09:41:44.578Z,30
2017-03-04T09:42:53.717Z,25
2017-03-04T09:44:03.334Z,25
2017-03-04T09:45:13.332Z,30
2017-03-04T09:46:22.939Z,30
2017-03-04T09:47:32.848Z,30
2017-03-04T09:48:42.451Z,30
2017-03-04T09:49:51.661Z,30
2017-03-04T09:51:01.258Z,30
2017-03-04T09:52:11.263Z,30
2017-03-04T09:53:20.434Z,30
2017-03-04T09:54:30.428Z,40
2017-03-04T09:55:40.787Z,65
2017-03-04T09:56:49.620Z,55
2017-03-04T09:57:59.997Z,40
2017-03-04T09:59:10.300Z,35
2017-03-04T10:00:20.260Z,40
2017-03-04T10:01:29.476Z,45
2017-03-04T10:02:39.874Z,45
2017-03-04T10:03:49.883Z,45
2017-03-04T10:04:59.861Z,50
2017-03-04T10:06:09.457Z,55
2017-03-04T10:07:18.675Z,60
2017-03-04T10:08:28.646Z,50
2017-03-04T10:09:38.250Z,70
2017-03-04T10:10:47.863Z,65
2017-03-04T10:11:57.475Z,95
2017-03-04T10:13:07.470Z,110
2017-03-04T10:14:16.969Z,90
2017-03-04T10:15:26.571Z,95
2017-03-04T10:16:35.401Z,90
2017-03-04T10:17:44.613Z,85
2017-03-04T10:18:54.153Z,55
2017-03-04T10:20:03.751Z,50
2017-03-04T10:21:13.719Z,45
2017-03-04T10:22:23.709Z,40
2017-03-04T10:23:33.298Z,35
2017-03-04T10:24:42.528Z,35
2017-03-04T10:25:52.549Z,30
2017-03-04T10:27:02.538Z,30
2017-03-04T10:28:11.732Z,30
2017-03-04T10:29:20.980Z,30
2017-03-04T10:30:30.502Z,30
2017-03-04T10:31:39.705Z,35
2017-03-04T10:32:49.262Z,40
2017-03-04T10:33:58.568Z,40
2017-03-04T10:35:08.573Z,45
2017-03-04T10:36:18.506Z,60
2017-03-04T10:37:28.095Z,90
2017-03-04T10:38:38.071Z,200
2017-03-04T10:39:48.052Z,235
2017-03-04T10:40:57.645Z,230
2017-03-04T10:42:07.231Z,200
2017-03-04T10:43:16.785Z,190
2017-03-04T10:44:26.002Z,150
2017-03-04T10:45:34.842Z,140
2017-03-04T10:46:43.641Z,130
2017-03-04T10:47:52.776Z,95
2017-03-04T10:49:01.930Z,100
2017-03-04T10:50:11.533Z,105
2017-03-04T10:51:21.556Z,100
2017-03-04T10:52:31.165Z,90
2017-03-04T10:53:40.768Z,85
2017-03-04T10:54:50.711Z,75
2017-03-04T10:55:59.925Z,80
2017-03-04T10:57:10.603Z,75
2017-03-04T10:58:20.973Z,90
2017-03-04T10:59:30.571Z,190
2017-03-04T11:00:40.486Z,150
2017-03-04T11:01:49.313Z,130
2017-03-04T11:02:59.226Z,115
2017-03-04T11:04:09.200Z,140
2017-03-04T11:05:18.737Z,100
2017-03-04T11:06:28.338Z,80
2017-03-04T11:07:37.140Z,60
2017-03-04T11:08:47.888Z,60
2017-03-04T11:09:57.487Z,60
2017-03-04T11:11:07.019Z,55
2017-03-04T11:12:16.567Z,60
2017-03-04T11:13:26.541Z,70
2017-03-04T11:14:35.706Z,75
2017-03-04T11:15:44.940Z,80
2017-03-04T11:16:54.166Z,110
2017-03-04T11:18:04.539Z,130
2017-03-04T11:19:14.924Z,140
2017-03-04T11:20:24.533Z,140
2017-03-04T11:21:33.752Z,130
2017-03-04T11:22:43.778Z,95
2017-03-04T11:23:53.778Z,85
2017-03-04T11:25:03.958Z,95
2017-03-04T11:26:13.199Z,110
2017-03-04T11:27:22.805Z,100
2017-03-04T11:28:32.025Z,125
2017-03-04T11:29:42.019Z,115
2017-03-04T11:30:51.635Z,120
2017-03-04T11:32:00.870Z,130
2017-03-04T11:33:10.461Z,90
2017-03-04T11:34:20.841Z,80
2017-03-04T11:35:29.969Z,80
2017-03-04T11:36:39.890Z,70
2017-03-04T11:37:49.111Z,85
2017-03-04T11:38:58.634Z,85
2017-03-04T11:40:07.838Z,90
2017-03-04T11:41:17.838Z,100
2017-03-04T11:42:27.064Z,110
2017-03-04T11:43:37.058Z,110
2017-03-04T11:44:46.284Z,95
2017-03-04T11:45:56.665Z,85
2017-03-04T11:47:06.247Z,85
2017-03-04T11:48:16.630Z,85
2017-03-04T11:49:25.853Z,130
2017-03-04T11:50:35.832Z,125
2017-03-04T11:51:45.806Z,135
2017-03-04T11:52:55.732Z,190
2017-03-04T11:54:05.332Z,200
2017-03-04T11:55:14.560Z,205
2017-03-04T11:56:24.149Z,180
2017-03-04T11:57:34.905Z,180
2017-03-04T11:58:45.109Z,165
2017-03-04T11:59:54.333Z,140
2017-03-04T12:01:03.900Z,120
2017-03-04T12:02:13.124Z,90
2017-03-04T12:03:23.469Z,55
2017-03-04T12:04:33.839Z,60
2017-03-04T12:05:43.437Z,45
2017-03-04T12:06:53.442Z,40
2017-03-04T12:08:03.041Z,30
2017-03-04T12:09:12.662Z,30
2017-03-04T12:10:22.275Z,25
2017-03-04T12:11:31.875Z,25
2017-03-04T12:12:41.865Z,20
2017-03-04T12:13:51.455Z,20
2017-03-04T12:15:01.374Z,20
2017-03-04T12:16:11.743Z,20
2017-03-04T12:17:21.361Z,20
2017-03-04T12:18:30.510Z,20
2017-03-04T12:19:40.097Z,20
2017-03-04T12:20:50.081Z,20
2017-03-04T12:21:59.272Z,20
2017-03-04T12:23:09.254Z,20
2017-03-04T12:24:18.472Z,20
2017-03-04T12:25:28.420Z,20
2017-03-04T12:26:38.442Z,20
2017-03-04T12:27:48.258Z,20
2017-03-04T12:28:58.218Z,25
2017-03-04T12:30:07.613Z,25
2017-03-04T12:31:17.220Z,25
2017-03-04T12:32:26.044Z,25
2017-03-04T12:33:35.261Z,25
2017-03-04T12:34:44.467Z,25
2017-03-04T12:35:54.075Z,30
2017-03-04T12:37:03.689Z,30
2017-03-04T12:38:13.694Z,30
2017-03-04T12:39:24.439Z,30
2017-03-04T12:40:34.042Z,30
2017-03-04T12:41:44.038Z,30
2017-03-04T12:42:53.544Z,35
2017-03-04T12:44:03.536Z,40
2017-03-04T12:45:13.173Z,40
2017-03-04T12:46:22.651Z,35
2017-03-04T12:47:32.972Z,35
2017-03-04T12:48:42.176Z,30
2017-03-04T12:49:52.544Z,25
2017-03-04T12:51:02.148Z,25
2017-03-04T12:52:11.672Z,20
2017-03-04T12:53:22.033Z,20
2017-03-04T12:54:31.663Z,20
2017-03-04T12:55:40.888Z,20
2017-03-04T12:56:50.885Z,20
2017-03-04T12:58:00.099Z,15
2017-03-04T12:59:10.014Z,15
2017-03-04T13:00:19.636Z,20
2017-03-04T13:01:29.226Z,20
2017-03-04T13:02:38.426Z,20
2017-03-04T13:03:47.568Z,20
2017-03-04T13:04:57.146Z,25
2017-03-04T13:06:06.006Z,25
2017-03-04T13:07:15.235Z,25
2017-03-04T13:08:24.811Z,25
2017-03-04T13:09:33.961Z,25
2017-03-04T13:10:43.180Z,25
2017-03-04T13:11:53.182Z,25
2017-03-04T13:13:02.379Z,25
2017-03-04T13:14:11.975Z,25
2017-03-04T13:15:20.790Z,25
2017-03-04T13:16:31.187Z,25
2017-03-04T13:17:40.791Z,25
2017-03-04T13:18:49.935Z,25
2017-03-04T13:19:59.067Z,25
2017-03-04T13:21:08.583Z,20
2017-03-04T13:22:18.577Z,20
2017-03-04T13:23:28.500Z,20
2017-03-04T13:24:37.819Z,25
2017-03-04T13:25:47.790Z,25
2017-03-04T13:26:58.079Z,25
2017-03-04T13:28:07.615Z,25
2017-03-04T13:29:17.208Z,25
2017-03-04T13:30:26.974Z,25
2017-03-04T13:31:36.168Z,25
2017-03-04T13:32:45.758Z,30
2017-03-04T13:33:56.149Z,30
2017-03-04T13:35:06.133Z,30
2017-03-04T13:36:15.716Z,30
2017-03-04T13:37:25.240Z,30
2017-03-04T13:38:34.018Z,30
2017-03-04T13:39:43.242Z,30
2017-03-04T13:40:53.242Z,30
2017-03-04T13:42:02.812Z,30
2017-03-04T13:43:12.618Z,30
2017-03-04T13:44:22.599Z,30
2017-03-04T13:45:32.193Z,30
2017-03-04T13:46:41.785Z,30
2017-03-04T13:47:51.297Z,35
2017-03-04T13:49:01.662Z,35
2017-03-04T13:50:11.664Z,35
2017-03-04T13:51:21.574Z,35
2017-03-04T13:52:31.108Z,35
2017-03-04T13:53:40.257Z,35
2017-03-04T13:54:49.464Z,30
2017-03-04T13:55:59.081Z,30
2017-03-04T13:57:09.084Z,30
2017-03-04T13:58:18.699Z,25
2017-03-04T13:59:28.214Z,25
2017-03-04T14:00:37.022Z,25
2017-03-04T14:01:46.223Z,20
2017-03-04T14:02:55.372Z,20
2017-03-04T14:04:04.891Z,20
2017-03-04T14:05:15.580Z,20
2017-03-04T14:06:25.562Z,20
2017-03-04T14:07:35.166Z,20
2017-03-04T14:08:45.875Z,20
2017-03-04T14:09:54.688Z,20
2017-03-04T14:11:04.299Z,20
2017-03-04T14:12:14.623Z,20
2017-03-04T14:13:24.210Z,25
2017-03-04T14:14:34.132Z,20
2017-03-04T14:15:43.705Z,20
2017-03-04T14:16:52.923Z,20
2017-03-04T14:18:02.934Z,20
2017-03-04T14:19:12.452Z,20
2017-03-04T14:20:22.856Z,20
2017-03-04T14:21:32.013Z,15
2017-03-04T14:22:42.409Z,15
2017-03-04T14:23:52.407Z,15
2017-03-04T14:25:02.003Z,15
2017-03-04T14:26:11.611Z,15
2017-03-04T14:27:20.428Z,15
2017-03-04T14:28:29.646Z,15
2017-03-04T14:29:40.413Z,15
2017-03-04T14:30:49.997Z,15
2017-03-04T14:31:59.941Z,15
2017-03-04T14:33:09.933Z,15
2017-03-04T14:34:19.965Z,15
2017-03-04T14:35:29.565Z,15
2017-03-04T14:36:39.492Z,15
2017-03-04T14:37:48.710Z,15
2017-03-04T14:38:58.349Z,15
2017-03-04T14:40:07.120Z,15
2017-03-04T14:41:17.119Z,15
2017-03-04T14:42:25.952Z,15
2017-03-04T14:43:35.539Z,15
2017-03-04T14:44:45.525Z,15
2017-03-04T14:45:55.904Z,15
2017-03-04T14:47:05.124Z,15
2017-03-04T14:48:14.666Z,15
2017-03-04T14:49:23.861Z,15
2017-03-04T14:50:32.699Z,15
2017-03-04T14:51:42.509Z,15
2017-03-04T14:52:52.090Z,15
2017-03-04T14:54:02.075Z,15
2017-03-04T14:55:11.668Z,15
2017-03-04T14:56:20.893Z,15
2017-03-04T14:57:29.957Z,15
2017-03-04T14:58:39.544Z,15
2017-03-04T14:59:49.543Z,15
2017-03-04T15:00:58.751Z,15
2017-03-04T15:02:08.332Z,15
2017-03-04T15:03:17.473Z,15
2017-03-04T15:04:27.105Z,15
2017-03-04T15:05:36.700Z,15
2017-03-04T15:06:45.844Z,15
2017-03-04T15:07:55.420Z,15
2017-03-04T15:09:05.040Z,15
2017-03-04T15:10:14.645Z,15
2017-03-04T15:11:24.945Z,10
2017-03-04T15:12:34.160Z,10
2017-03-04T15:13:44.929Z,10
2017-03-04T15:14:54.876Z,10
2017-03-04T15:16:04.212Z,10
2017-03-04T15:17:14.587Z,10
2017-03-04T15:18:23.826Z,10
2017-03-04T15:19:33.822Z,10
2017-03-04T15:20:43.061Z,10
2017-03-04T15:21:52.668Z,10
2017-03-04T15:23:02.275Z,10
2017-03-04T15:24:11.882Z,10
2017-03-04T15:25:21.472Z,15
2017-03-04T15:26:30.670Z,15
2017-03-04T15:27:40.261Z,15
2017-03-04T15:28:49.864Z,15
2017-03-04T15:29:59.462Z,15
2017-03-04T15:31:09.440Z,15
2017-03-04T15:32:18.561Z,10
2017-03-04T15:33:28.558Z,10
2017-03-04T15:34:37.370Z,10
2017-03-04T15:35:47.746Z,10
2017-03-04T15:36:57.324Z,10
2017-03-04T15:38:07.040Z,10
2017-03-04T15:39:16.630Z,10
2017-03-04T15:40:26.599Z,10
2017-03-04T15:41:35.428Z,10
2017-03-04T15:42:45.015Z,10
2017-03-04T15:43:54.213Z,10
2017-03-04T15:45:03.386Z,10
2017-03-04T15:46:13.375Z,10
2017-03-04T15:47:22.956Z,10
2017-03-04T15:48:31.751Z,10
2017-03-04T15:49:41.730Z,10
2017-03-04T15:50:51.536Z,5
2017-03-04T15:52:01.155Z,5
2017-03-04T15:53:10.740Z,5
2017-03-04T15:54:19.580Z,5
2017-03-04T15:55:28.782Z,5
2017-03-04T15:56:38.516Z,5
2017-03-04T15:57:47.742Z,5
2017-03-04T15:58:57.351Z,5
2017-03-04T16:00:06.978Z,5
2017-03-04T16:01:16.933Z,5
2017-03-04T16:02:26.167Z,5
2017-03-04T16:03:36.165Z,5
2017-03-04T16:04:45.763Z,5
2017-03-04T16:05:55.306Z,5
2017-03-04T16:07:04.451Z,5
2017-03-04T16:08:14.048Z,5
2017-03-04T16:09:22.861Z,5
2017-03-04T16:10:33.160Z,5
2017-03-04T16:11:43.532Z,5
2017-03-04T16:12:52.752Z,5
2017-03-04T16:14:02.338Z,5
2017-03-04T16:15:11.688Z,0
2017-03-04T16:16:20.897Z,0
2017-03-04T16:17:30.821Z,0
2017-03-04T16:18:40.806Z,0
2017-03-04T16:19:50.429Z,0
2017-03-04T16:20:59.251Z,0
2017-03-04T16:22:09.628Z,0
2017-03-04T16:23:18.836Z,0
2017-03-04T16:24:28.438Z,0
2017-03-04T16:25:38.041Z,0
2017-03-04T16:26:47.946Z,0
2017-03-04T16:27:57.540Z,0
2017-03-04T16:29:07.630Z,0
2017-03-04T16:30:17.635Z,0
2017-03-04T16:31:27.620Z,0
2017-03-04T16:32:37.354Z,0
2017-03-04T16:33:47.329Z,0
2017-03-04T16:34:56.919Z,0
2017-03-04T16:36:06.496Z,0
2017-03-04T16:37:15.694Z,0
2017-03-04T16:38:25.297Z,0
2017-03-04T16:39:35.685Z,0
2017-03-04T16:40:44.914Z,0
2017-03-04T16:41:54.125Z,0
2017-03-04T16:43:02.978Z,0
2017-03-04T16:44:12.909Z,0
2017-03-04T16:45:22.111Z,0
2017-03-04T16:46:31.314Z,0
2017-03-04T16:47:41.291Z,0
2017-03-04T16:48:51.660Z,0
2017-03-04T16:50:01.166Z,0
2017-03-04T16:51:11.169Z,0